sensor_id;sensor_type;location;lat;lon;timestamp;pressure;altitude;pressure_sealevel;temperature;humidity
60371;BME280;48550;40.588;49.684;2022-09-20T00:01:28;101298.25;;;21.37;100.00
60371;BME280;48550;40.588;49.684;2022-09-20T00:03:57;101302.16;;;21.31;100.00
60371;BME280;48550;40.588;49.684;2022-09-20T00:06:28;101309.59;;;21.25;100.00
60371;BME280;48550;40.588;49.684;2022-09-20T00:08:54;101303.34;;;21.19;100.00
60371;BME280;48550;40.588;49.684;2022-09-20T00:11:23;101296.16;;;21.29;100.00
60371;BME280;48550;40.588;49.684;2022-09-20T00:13:52;101300.06;;;21.22;100.00
60371;BME280;48550;40.588;49.684;2022-09-20T00:16:22;101300.59;;;21.19;100.00
60371;BME280;48550;40.588;49.684;2022-09-20T00:18:49;101293.53;;;21.18;100.00
60371;BME280;48550;40.588;49.684;2022-09-20T00:21:18;101292.75;;;21.13;100.00
60371;BME280;48550;40.588;49.684;2022-09-20T00:23:44;101279.41;;;21.11;100.00
60371;BME280;48550;40.588;49.684;2022-09-20T00:26:11;101292.00;;;21.07;100.00
60371;BME280;48550;40.588;49.684;2022-09-20T00:28:39;101289.28;;;21.07;100.00
60371;BME280;48550;40.588;49.684;2022-09-20T00:31:05;101282.47;;;21.05;100.00
60371;BME280;48550;40.588;49.684;2022-09-20T00:33:32;101283.81;;;21.07;100.00
60371;BME280;48550;40.588;49.684;2022-09-20T00:36:17;101281.56;;;21.14;100.00
60371;BME280;48550;40.588;49.684;2022-09-20T00:38:43;101288.13;;;21.13;100.00
60371;BME280;48550;40.588;49.684;2022-09-20T00:41:08;101284.75;;;21.21;100.00
60371;BME280;48550;40.588;49.684;2022-09-20T00:43:41;101283.63;;;21.28;100.00
60371;BME280;48550;40.588;49.684;2022-09-20T00:46:35;101291.28;;;21.25;100.00
60371;BME280;48550;40.588;49.684;2022-09-20T00:49:25;101293.09;;;21.35;100.00
60371;BME280;48550;40.588;49.684;2022-09-20T00:51:56;101290.66;;;21.34;100.00
60371;BME280;48550;40.588;49.684;2022-09-20T00:54:25;101285.25;;;21.29;100.00
60371;BME280;48550;40.588;49.684;2022-09-20T00:56:51;101282.53;;;21.29;100.00
60371;BME280;48550;40.588;49.684;2022-09-20T00:59:33;101282.03;;;21.21;100.00
60371;BME280;48550;40.588;49.684;2022-09-20T01:02:01;101294.34;;;21.19;100.00
60371;BME280;48550;40.588;49.684;2022-09-20T01:04:28;101289.47;;;21.16;100.00
60371;BME280;48550;40.588;49.684;2022-09-20T01:06:57;101281.56;;;21.14;100.00
60371;BME280;48550;40.588;49.684;2022-09-20T01:09:24;101287.66;;;21.06;100.00
60371;BME280;48550;40.588;49.684;2022-09-20T01:11:51;101287.94;;;21.05;100.00
60371;BME280;48550;40.588;49.684;2022-09-20T01:14:18;101283.28;;;21.05;100.00
60371;BME280;48550;40.588;49.684;2022-09-20T01:16:46;101279.81;;;21.00;100.00
60371;BME280;48550;40.588;49.684;2022-09-20T01:19:33;101263.72;;;20.98;100.00
60371;BME280;48550;40.588;49.684;2022-09-20T01:22:05;101260.34;;;21.06;100.00
60371;BME280;48550;40.588;49.684;2022-09-20T01:24:51;101283.25;;;21.10;100.00
60371;BME280;48550;40.588;49.684;2022-09-20T01:27:44;101296.06;;;21.10;100.00
60371;BME280;48550;40.588;49.684;2022-09-20T01:30:17;101306.94;;;21.15;100.00
60371;BME280;48550;40.588;49.684;2022-09-20T01:35:19;101292.75;;;21.13;100.00
60371;BME280;48550;40.588;49.684;2022-09-20T01:38:09;101305.94;;;21.06;100.00
60371;BME280;48550;40.588;49.684;2022-09-20T01:43:27;101314.19;;;21.01;100.00
60371;BME280;48550;40.588;49.684;2022-09-20T01:45:57;101318.47;;;21.07;100.00
60371;BME280;48550;40.588;49.684;2022-09-20T01:48:34;101314.38;;;21.09;100.00
60371;BME280;48550;40.588;49.684;2022-09-20T01:51:20;101302.91;;;21.07;100.00
60371;BME280;48550;40.588;49.684;2022-09-20T01:59:30;101328.34;;;21.03;100.00
60371;BME280;48550;40.588;49.684;2022-09-20T02:02:08;101311.69;;;21.04;100.00
60371;BME280;48550;40.588;49.684;2022-09-20T02:08:02;101308.19;;;20.99;100.00
60371;BME280;48550;40.588;49.684;2022-09-20T02:24:48;101320.53;;;20.91;100.00
60371;BME280;48550;40.588;49.684;2022-09-20T02:27:54;101334.16;;;20.96;100.00
60371;BME280;48550;40.588;49.684;2022-09-20T02:33:51;101318.25;;;21.03;100.00
60371;BME280;48550;40.588;49.684;2022-09-20T02:39:19;101324.53;;;21.04;100.00
60371;BME280;48550;40.588;49.684;2022-09-20T02:47:44;101342.91;;;21.22;100.00
60371;BME280;48550;40.588;49.684;2022-09-20T02:55:46;101340.38;;;21.31;100.00
60371;BME280;48550;40.588;49.684;2022-09-20T03:15:15;101346.50;;;21.70;100.00
60371;BME280;48550;40.588;49.684;2022-09-20T03:17:52;101351.44;;;21.68;100.00
60371;BME280;48550;40.588;49.684;2022-09-20T03:23:55;101344.25;;;21.96;100.00
60371;BME280;48550;40.588;49.684;2022-09-20T03:29:21;101348.22;;;22.28;100.00
60371;BME280;48550;40.588;49.684;2022-09-20T03:37:34;101351.41;;;22.54;100.00
60371;BME280;48550;40.588;49.684;2022-09-20T03:42:46;101340.31;;;22.82;100.00
60371;BME280;48550;40.588;49.684;2022-09-20T03:48:18;101339.09;;;23.21;100.00
60371;BME280;48550;40.588;49.684;2022-09-20T03:51:12;101341.53;;;23.36;100.00
60371;BME280;48550;40.588;49.684;2022-09-20T03:56:51;101344.00;;;23.65;100.00
60371;BME280;48550;40.588;49.684;2022-09-20T04:04:39;101343.56;;;23.44;100.00
60371;BME280;48550;40.588;49.684;2022-09-20T04:10:12;101341.56;;;23.77;100.00
60371;BME280;48550;40.588;49.684;2022-09-20T04:18:37;101345.81;;;24.11;100.00
60371;BME280;48550;40.588;49.684;2022-09-20T04:21:21;101336.50;;;23.71;100.00
60371;BME280;48550;40.588;49.684;2022-09-20T04:26:29;101334.03;;;24.11;100.00
60371;BME280;48550;40.588;49.684;2022-09-20T04:31:41;101341.34;;;24.51;100.00
60371;BME280;48550;40.588;49.684;2022-09-20T04:34:17;101341.16;;;24.70;100.00
60371;BME280;48550;40.588;49.684;2022-09-20T04:37:00;101335.34;;;24.94;100.00
60371;BME280;48550;40.588;49.684;2022-09-20T04:39:44;101335.84;;;24.96;100.00
60371;BME280;48550;40.588;49.684;2022-09-20T04:50:40;101335.19;;;25.52;100.00
60371;BME280;48550;40.588;49.684;2022-09-20T05:10:34;101357.50;;;28.79;100.00
60371;BME280;48550;40.588;49.684;2022-09-20T05:16:04;101349.03;;;29.18;100.00
60371;BME280;48550;40.588;49.684;2022-09-20T05:21:33;101362.13;;;29.78;98.58
60371;BME280;48550;40.588;49.684;2022-09-20T05:32:28;101359.44;;;31.46;79.92
60371;BME280;48550;40.588;49.684;2022-09-20T05:35:20;101365.44;;;31.32;78.46
60371;BME280;48550;40.588;49.684;2022-09-20T05:37:55;101362.44;;;31.88;77.13
60371;BME280;48550;40.588;49.684;2022-09-20T05:40:34;101368.25;;;31.99;76.02
60371;BME280;48550;40.588;49.684;2022-09-20T05:43:15;101368.63;;;32.51;73.41
60371;BME280;48550;40.588;49.684;2022-09-20T05:51:47;101382.28;;;32.99;66.49
60371;BME280;48550;40.588;49.684;2022-09-20T05:54:40;101376.03;;;32.09;71.14
60371;BME280;48550;40.588;49.684;2022-09-20T06:00:06;101373.72;;;33.07;66.52
60371;BME280;48550;40.588;49.684;2022-09-20T06:03:11;101369.44;;;32.91;65.48
60371;BME280;48550;40.588;49.684;2022-09-20T06:06:03;101369.59;;;31.89;71.51
60371;BME280;48550;40.588;49.684;2022-09-20T06:17:41;101372.13;;;30.87;83.42
60371;BME280;48550;40.588;49.684;2022-09-20T06:20:24;101371.69;;;31.60;75.83
60371;BME280;48550;40.588;49.684;2022-09-20T06:22:57;101364.56;;;31.95;75.77
60371;BME280;48550;40.588;49.684;2022-09-20T06:25:43;101360.31;;;32.16;73.45
60371;BME280;48550;40.588;49.684;2022-09-20T06:28:15;101355.19;;;31.68;76.98
60371;BME280;48550;40.588;49.684;2022-09-20T06:30:52;101358.56;;;32.08;72.56
60371;BME280;48550;40.588;49.684;2022-09-20T06:33:26;101354.13;;;32.23;70.05
60371;BME280;48550;40.588;49.684;2022-09-20T06:35:56;101353.69;;;31.54;76.30
60371;BME280;48550;40.588;49.684;2022-09-20T06:41:45;101344.72;;;31.14;79.23
60371;BME280;48550;40.588;49.684;2022-09-20T06:44:10;101350.38;;;31.17;78.92
60371;BME280;48550;40.588;49.684;2022-09-20T06:46:36;101343.44;;;31.23;76.38
60371;BME280;48550;40.588;49.684;2022-09-20T06:49:03;101338.09;;;31.66;75.61
60371;BME280;48550;40.588;49.684;2022-09-20T06:51:34;101336.06;;;31.78;75.75
60371;BME280;48550;40.588;49.684;2022-09-20T06:54:00;101330.44;;;31.94;73.43
60371;BME280;48550;40.588;49.684;2022-09-20T06:56:29;101325.66;;;31.12;78.71
60371;BME280;48550;40.588;49.684;2022-09-20T06:58:56;101331.63;;;31.93;72.14
60371;BME280;48550;40.588;49.684;2022-09-20T07:01:22;101313.47;;;32.15;71.15
60371;BME280;48550;40.588;49.684;2022-09-20T07:03:48;101322.03;;;32.06;75.87
60371;BME280;48550;40.588;49.684;2022-09-20T07:06:14;101317.50;;;32.17;69.83
60371;BME280;48550;40.588;49.684;2022-09-20T07:08:42;101314.88;;;30.63;81.82
60371;BME280;48550;40.588;49.684;2022-09-20T07:11:13;101307.81;;;31.25;80.65
60371;BME280;48550;40.588;49.684;2022-09-20T07:13:41;101310.94;;;30.64;83.78
60371;BME280;48550;40.588;49.684;2022-09-20T07:16:12;101303.22;;;30.58;83.53
60371;BME280;48550;40.588;49.684;2022-09-20T07:18:38;101308.78;;;30.18;86.64
60371;BME280;48550;40.588;49.684;2022-09-20T07:21:12;101303.50;;;28.37;100.00
60371;BME280;48550;40.588;49.684;2022-09-20T07:23:38;101299.53;;;27.37;100.00
60371;BME280;48550;40.588;49.684;2022-09-20T07:26:04;101292.72;;;27.05;100.00
60371;BME280;48550;40.588;49.684;2022-09-20T07:28:32;101284.44;;;26.97;100.00
60371;BME280;48550;40.588;49.684;2022-09-20T07:31:00;101286.16;;;26.28;100.00
60371;BME280;48550;40.588;49.684;2022-09-20T07:33:26;101278.53;;;25.91;100.00
60371;BME280;48550;40.588;49.684;2022-09-20T07:35:52;101272.22;;;25.82;100.00
60371;BME280;48550;40.588;49.684;2022-09-20T07:38:22;101265.56;;;25.83;100.00
60371;BME280;48550;40.588;49.684;2022-09-20T07:40:56;101257.38;;;26.09;100.00
60371;BME280;48550;40.588;49.684;2022-09-20T07:43:23;101272.56;;;26.23;100.00
60371;BME280;48550;40.588;49.684;2022-09-20T07:45:50;101267.38;;;25.96;100.00
60371;BME280;48550;40.588;49.684;2022-09-20T07:48:23;101256.22;;;26.10;100.00
60371;BME280;48550;40.588;49.684;2022-09-20T07:51:22;101256.38;;;25.96;100.00
60371;BME280;48550;40.588;49.684;2022-09-20T07:53:48;101250.06;;;26.13;100.00
60371;BME280;48550;40.588;49.684;2022-09-20T07:56:18;101243.59;;;25.91;100.00
60371;BME280;48550;40.588;49.684;2022-09-20T07:58:44;101246.97;;;25.71;100.00
60371;BME280;48550;40.588;49.684;2022-09-20T08:01:11;101246.59;;;25.64;100.00
60371;BME280;48550;40.588;49.684;2022-09-20T08:03:38;101248.41;;;25.69;100.00
60371;BME280;48550;40.588;49.684;2022-09-20T08:06:07;101245.34;;;25.70;100.00
60371;BME280;48550;40.588;49.684;2022-09-20T08:08:38;101239.94;;;25.48;100.00
60371;BME280;48550;40.588;49.684;2022-09-20T08:11:13;101237.03;;;25.44;100.00
60371;BME280;48550;40.588;49.684;2022-09-20T08:13:41;101237.31;;;25.34;100.00
60371;BME280;48550;40.588;49.684;2022-09-20T08:16:10;101235.78;;;25.11;100.00
60371;BME280;48550;40.588;49.684;2022-09-20T08:18:36;101226.75;;;25.19;100.00
60371;BME280;48550;40.588;49.684;2022-09-20T08:21:04;101227.38;;;25.16;100.00
60371;BME280;48550;40.588;49.684;2022-09-20T08:23:36;101227.63;;;24.97;100.00
60371;BME280;48550;40.588;49.684;2022-09-20T08:26:04;101223.50;;;25.08;100.00
60371;BME280;48550;40.588;49.684;2022-09-20T08:28:30;101225.75;;;25.06;100.00
60371;BME280;48550;40.588;49.684;2022-09-20T08:31:07;101228.50;;;25.06;100.00
60371;BME280;48550;40.588;49.684;2022-09-20T08:33:34;101226.41;;;25.12;100.00
60371;BME280;48550;40.588;49.684;2022-09-20T08:36:04;101219.47;;;24.83;100.00
60371;BME280;48550;40.588;49.684;2022-09-20T08:38:31;101211.13;;;24.57;100.00
60371;BME280;48550;40.588;49.684;2022-09-20T08:43:46;101220.13;;;24.80;100.00
60371;BME280;48550;40.588;49.684;2022-09-20T08:46:15;101211.13;;;24.57;100.00
60371;BME280;48550;40.588;49.684;2022-09-20T08:48:42;101209.22;;;24.66;100.00
60371;BME280;48550;40.588;49.684;2022-09-20T08:51:13;101199.56;;;24.47;100.00
60371;BME280;48550;40.588;49.684;2022-09-20T08:53:50;101204.66;;;24.53;100.00
60371;BME280;48550;40.588;49.684;2022-09-20T08:56:19;101206.75;;;24.56;100.00
60371;BME280;48550;40.588;49.684;2022-09-20T08:58:46;101206.88;;;24.51;100.00
60371;BME280;48550;40.588;49.684;2022-09-20T09:01:21;101210.31;;;24.57;100.00
60371;BME280;48550;40.588;49.684;2022-09-20T09:03:51;101196.91;;;24.11;100.00
60371;BME280;48550;40.588;49.684;2022-09-20T09:06:22;101195.72;;;24.25;100.00
60371;BME280;48550;40.588;49.684;2022-09-20T09:08:49;101192.16;;;24.02;100.00
60371;BME280;48550;40.588;49.684;2022-09-20T09:11:18;101184.06;;;24.20;100.00
60371;BME280;48550;40.588;49.684;2022-09-20T09:13:55;101183.75;;;24.21;100.00
60371;BME280;48550;40.588;49.684;2022-09-20T09:16:25;101174.97;;;24.11;100.00
60371;BME280;48550;40.588;49.684;2022-09-20T09:18:51;101172.53;;;24.09;100.00
60371;BME280;48550;40.588;49.684;2022-09-20T09:21:23;101163.38;;;24.14;100.00
60371;BME280;48550;40.588;49.684;2022-09-20T09:24:26;101162.75;;;24.17;100.00
60371;BME280;48550;40.588;49.684;2022-09-20T09:27:15;101165.44;;;24.08;100.00
60371;BME280;48550;40.588;49.684;2022-09-20T09:29:53;101169.28;;;24.07;100.00
60371;BME280;48550;40.588;49.684;2022-09-20T09:32:21;101157.81;;;24.05;100.00
60371;BME280;48550;40.588;49.684;2022-09-20T09:34:53;101159.06;;;23.99;100.00
60371;BME280;48550;40.588;49.684;2022-09-20T09:37:29;101145.88;;;24.01;100.00
60371;BME280;48550;40.588;49.684;2022-09-20T09:40:25;101149.34;;;23.93;100.00
60371;BME280;48550;40.588;49.684;2022-09-20T09:42:54;101155.16;;;23.91;100.00
60371;BME280;48550;40.588;49.684;2022-09-20T09:45:27;101143.00;;;23.84;100.00
60371;BME280;48550;40.588;49.684;2022-09-20T09:47:56;101138.63;;;24.05;100.00
60371;BME280;48550;40.588;49.684;2022-09-20T09:50:32;101133.47;;;24.03;100.00
60371;BME280;48550;40.588;49.684;2022-09-20T09:53:11;101125.50;;;23.93;100.00
60371;BME280;48550;40.588;49.684;2022-09-20T10:01:52;101116.63;;;23.96;100.00
60371;BME280;48550;40.588;49.684;2022-09-20T10:09:59;101099.47;;;23.82;100.00
60371;BME280;48550;40.588;49.684;2022-09-20T10:43:44;101055.09;;;24.11;100.00
60371;BME280;48550;40.588;49.684;2022-09-20T11:01:08;101035.34;;;24.71;100.00
60371;BME280;48550;40.588;49.684;2022-09-20T11:03:51;101040.50;;;24.64;100.00
60371;BME280;48550;40.588;49.684;2022-09-20T11:09:06;101025.06;;;24.37;100.00
60371;BME280;48550;40.588;49.684;2022-09-20T11:11:46;101022.22;;;24.20;100.00
60371;BME280;48550;40.588;49.684;2022-09-20T11:14:40;101019.31;;;24.16;100.00
60371;BME280;48550;40.588;49.684;2022-09-20T11:17:11;101015.25;;;24.05;100.00
60371;BME280;48550;40.588;49.684;2022-09-20T11:20:13;101013.25;;;23.97;100.00
60371;BME280;48550;40.588;49.684;2022-09-20T11:22:49;101020.38;;;23.98;100.00
60371;BME280;48550;40.588;49.684;2022-09-20T11:25:27;101004.56;;;23.95;100.00
60371;BME280;48550;40.588;49.684;2022-09-20T11:28:21;101000.69;;;23.96;100.00
60371;BME280;48550;40.588;49.684;2022-09-20T11:33:34;100996.19;;;24.00;100.00
60371;BME280;48550;40.588;49.684;2022-09-20T11:36:07;101001.22;;;24.06;100.00
60371;BME280;48550;40.588;49.684;2022-09-20T11:38:57;100998.81;;;24.14;100.00
60371;BME280;48550;40.588;49.684;2022-09-20T11:41:29;100999.22;;;24.29;100.00
60371;BME280;48550;40.588;49.684;2022-09-20T11:43:58;100995.84;;;24.32;100.00
60371;BME280;48550;40.588;49.684;2022-09-20T11:46:49;100983.91;;;24.37;100.00
60371;BME280;48550;40.588;49.684;2022-09-20T11:49:22;100990.41;;;24.50;100.00
60371;BME280;48550;40.588;49.684;2022-09-20T11:52:26;100984.00;;;24.63;100.00
60371;BME280;48550;40.588;49.684;2022-09-20T11:57:43;100983.69;;;24.90;100.00
60371;BME280;48550;40.588;49.684;2022-09-20T12:00:10;100981.00;;;25.08;100.00
60371;BME280;48550;40.588;49.684;2022-09-20T12:02:47;100985.97;;;25.23;100.00
60371;BME280;48550;40.588;49.684;2022-09-20T12:05:31;100981.16;;;25.37;100.00
60371;BME280;48550;40.588;49.684;2022-09-20T12:08:01;100977.38;;;25.68;100.00
60371;BME280;48550;40.588;49.684;2022-09-20T12:10:30;100980.22;;;25.88;100.00
60371;BME280;48550;40.588;49.684;2022-09-20T12:13:04;100981.09;;;26.18;100.00
60371;BME280;48550;40.588;49.684;2022-09-20T12:15:36;100980.97;;;26.44;100.00
60371;BME280;48550;40.588;49.684;2022-09-20T12:28:52;100978.09;;;29.00;27.09
60371;BME280;48550;40.588;49.684;2022-09-20T13:14:01;100975.53;;;29.07;22.56
60371;BME280;48550;40.588;49.684;2022-09-20T13:19:04;100981.97;;;29.11;22.55
60371;BME280;48550;40.588;49.684;2022-09-20T13:21:40;100986.59;;;29.07;23.34
60371;BME280;48550;40.588;49.684;2022-09-20T13:24:06;100978.66;;;29.05;23.65
60371;BME280;48550;40.588;49.684;2022-09-20T13:26:43;100976.69;;;29.06;24.08
60371;BME280;48550;40.588;49.684;2022-09-20T13:29:38;100977.59;;;29.10;24.22
60371;BME280;48550;40.588;49.684;2022-09-20T13:34:40;100976.00;;;29.09;25.02
60371;BME280;48550;40.588;49.684;2022-09-20T13:37:16;100985.66;;;29.15;24.65
60371;BME280;48550;40.588;49.684;2022-09-20T13:39:45;100979.50;;;29.22;25.00
60371;BME280;48550;40.588;49.684;2022-09-20T13:42:15;100985.94;;;29.26;25.84
60371;BME280;48550;40.588;49.684;2022-09-20T13:44:43;100982.81;;;29.27;25.36
60371;BME280;48550;40.588;49.684;2022-09-20T13:47:27;100990.22;;;29.23;26.68
60371;BME280;48550;40.588;49.684;2022-09-20T13:50:01;100992.09;;;29.19;27.33
60371;BME280;48550;40.588;49.684;2022-09-20T13:52:47;100989.56;;;29.14;27.39
60371;BME280;48550;40.588;49.684;2022-09-20T13:55:27;100986.16;;;29.05;28.42
60371;BME280;48550;40.588;49.684;2022-09-20T13:57:56;100990.06;;;28.92;28.10
60371;BME280;48550;40.588;49.684;2022-09-20T14:00:23;100991.69;;;28.80;28.65
60371;BME280;48550;40.588;49.684;2022-09-20T14:02:52;101000.00;;;28.68;28.70
60371;BME280;48550;40.588;49.684;2022-09-20T14:05:24;100983.47;;;28.56;30.14
60371;BME280;48550;40.588;49.684;2022-09-20T14:07:51;100980.59;;;28.40;30.57
60371;BME280;48550;40.588;49.684;2022-09-20T14:10:37;100982.47;;;28.24;31.88
60371;BME280;48550;40.588;49.684;2022-09-20T14:13:13;100982.84;;;28.14;32.85
60371;BME280;48550;40.588;49.684;2022-09-20T14:15:43;100978.13;;;28.02;34.48
60371;BME280;48550;40.588;49.684;2022-09-20T14:18:16;100982.25;;;27.84;34.97
60371;BME280;48550;40.588;49.684;2022-09-20T14:20:44;100977.41;;;27.69;36.52
60371;BME280;48550;40.588;49.684;2022-09-20T14:23:49;100982.19;;;27.60;36.61
60371;BME280;48550;40.588;49.684;2022-09-20T14:28:42;100978.06;;;27.33;39.66
60371;BME280;48550;40.588;49.684;2022-09-20T14:31:15;100976.75;;;27.18;42.97
60371;BME280;48550;40.588;49.684;2022-09-20T14:33:45;100979.78;;;27.04;43.01
60371;BME280;48550;40.588;49.684;2022-09-20T14:36:14;100978.41;;;26.89;45.41
60371;BME280;48550;40.588;49.684;2022-09-20T14:38:43;100979.28;;;26.81;46.20
60371;BME280;48550;40.588;49.684;2022-09-20T14:41:10;100977.59;;;26.68;48.16
60371;BME280;48550;40.588;49.684;2022-09-20T14:43:36;100982.47;;;26.63;49.13
60371;BME280;48550;40.588;49.684;2022-09-20T14:46:13;100993.06;;;26.52;48.11
60371;BME280;48550;40.588;49.684;2022-09-20T14:48:40;100998.50;;;26.40;51.36
60371;BME280;48550;40.588;49.684;2022-09-20T14:53:50;100991.97;;;26.15;50.08
60371;BME280;48550;40.588;49.684;2022-09-20T14:56:26;100999.78;;;26.04;47.77
60371;BME280;48550;40.588;49.684;2022-09-20T14:59:02;101003.00;;;25.97;46.60
60371;BME280;48550;40.588;49.684;2022-09-20T15:01:28;101000.28;;;25.89;45.48
60371;BME280;48550;40.588;49.684;2022-09-20T15:03:56;100999.03;;;25.78;45.31
60371;BME280;48550;40.588;49.684;2022-09-20T15:06:22;101003.25;;;25.67;44.91
60371;BME280;48550;40.588;49.684;2022-09-20T15:08:49;101013.59;;;25.61;44.20
60371;BME280;48550;40.588;49.684;2022-09-20T15:11:16;101012.66;;;25.48;44.66
60371;BME280;48550;40.588;49.684;2022-09-20T15:13:42;101015.41;;;25.40;44.41
60371;BME280;48550;40.588;49.684;2022-09-20T15:16:07;101013.94;;;25.42;46.21
60371;BME280;48550;40.588;49.684;2022-09-20T15:18:39;101027.22;;;25.40;50.49
60371;BME280;48550;40.588;49.684;2022-09-20T15:21:05;101020.75;;;25.36;52.64
60371;BME280;48550;40.588;49.684;2022-09-20T15:23:31;101029.97;;;25.31;56.44
60371;BME280;48550;40.588;49.684;2022-09-20T15:25:57;101023.78;;;25.26;62.04
60371;BME280;48550;40.588;49.684;2022-09-20T15:28:24;101034.47;;;25.19;62.65
60371;BME280;48550;40.588;49.684;2022-09-20T15:30:51;101036.25;;;25.15;67.07
60371;BME280;48550;40.588;49.684;2022-09-20T15:33:18;101039.47;;;25.17;69.89
60371;BME280;48550;40.588;49.684;2022-09-20T15:35:45;101044.81;;;25.13;71.55
60371;BME280;48550;40.588;49.684;2022-09-20T15:38:11;101040.28;;;25.09;73.88
60371;BME280;48550;40.588;49.684;2022-09-20T15:40:39;101035.25;;;25.02;76.57
60371;BME280;48550;40.588;49.684;2022-09-20T15:43:06;101034.59;;;24.96;81.58
60371;BME280;48550;40.588;49.684;2022-09-20T15:45:34;101045.56;;;24.88;82.31
60371;BME280;48550;40.588;49.684;2022-09-20T15:48:00;101050.25;;;24.87;88.21
60371;BME280;48550;40.588;49.684;2022-09-20T15:50:27;101049.91;;;24.80;91.22
60371;BME280;48550;40.588;49.684;2022-09-20T15:52:53;101051.53;;;24.81;90.58
60371;BME280;48550;40.588;49.684;2022-09-20T15:55:20;101058.31;;;24.84;100.00
60371;BME280;48550;40.588;49.684;2022-09-20T15:57:46;101053.94;;;24.83;93.16
60371;BME280;48550;40.588;49.684;2022-09-20T16:00:15;101061.88;;;24.84;90.04
60371;BME280;48550;40.588;49.684;2022-09-20T16:02:43;101063.00;;;24.83;95.18
60371;BME280;48550;40.588;49.684;2022-09-20T16:05:12;101063.94;;;24.79;92.68
60371;BME280;48550;40.588;49.684;2022-09-20T16:07:38;101068.63;;;24.78;91.70
60371;BME280;48550;40.588;49.684;2022-09-20T16:10:04;101073.97;;;24.75;93.62
60371;BME280;48550;40.588;49.684;2022-09-20T16:12:30;101070.72;;;24.73;96.75
60371;BME280;48550;40.588;49.684;2022-09-20T16:14:55;101067.94;;;24.64;96.29
60371;BME280;48550;40.588;49.684;2022-09-20T16:17:21;101069.41;;;24.61;100.00
60371;BME280;48550;40.588;49.684;2022-09-20T16:20:07;101075.78;;;24.48;100.00
60371;BME280;48550;40.588;49.684;2022-09-20T16:22:33;101087.72;;;24.44;100.00
60371;BME280;48550;40.588;49.684;2022-09-20T16:24:59;101089.75;;;24.29;100.00
60371;BME280;48550;40.588;49.684;2022-09-20T16:27:26;101087.25;;;24.19;100.00
60371;BME280;48550;40.588;49.684;2022-09-20T16:29:51;101090.44;;;24.13;100.00
60371;BME280;48550;40.588;49.684;2022-09-20T16:32:17;101093.06;;;24.18;100.00
60371;BME280;48550;40.588;49.684;2022-09-20T16:34:43;101087.25;;;24.19;100.00
60371;BME280;48550;40.588;49.684;2022-09-20T16:37:11;101088.19;;;24.15;100.00
60371;BME280;48550;40.588;49.684;2022-09-20T16:39:41;101091.22;;;24.04;100.00
60371;BME280;48550;40.588;49.684;2022-09-20T16:42:09;101090.09;;;23.83;100.00
60371;BME280;48550;40.588;49.684;2022-09-20T16:44:40;101094.81;;;23.69;100.00
60371;BME280;48550;40.588;49.684;2022-09-20T16:47:14;101098.88;;;23.71;100.00
60371;BME280;48550;40.588;49.684;2022-09-20T16:49:46;101105.03;;;23.55;100.00
60371;BME280;48550;40.588;49.684;2022-09-20T16:52:12;101105.94;;;23.50;100.00
60371;BME280;48550;40.588;49.684;2022-09-20T16:54:38;101106.78;;;23.73;100.00
60371;BME280;48550;40.588;49.684;2022-09-20T16:57:05;101101.47;;;23.76;100.00
60371;BME280;48550;40.588;49.684;2022-09-20T16:59:30;101106.38;;;23.80;100.00
60371;BME280;48550;40.588;49.684;2022-09-20T17:01:56;101112.72;;;23.89;100.00
60371;BME280;48550;40.588;49.684;2022-09-20T17:04:22;101099.13;;;23.84;100.00
60371;BME280;48550;40.588;49.684;2022-09-20T17:06:50;101106.47;;;23.74;100.00
60371;BME280;48550;40.588;49.684;2022-09-20T17:09:16;101105.34;;;23.75;100.00
60371;BME280;48550;40.588;49.684;2022-09-20T17:11:44;101111.94;;;23.74;100.00
60371;BME280;48550;40.588;49.684;2022-09-20T17:14:10;101104.84;;;23.73;100.00
60371;BME280;48550;40.588;49.684;2022-09-20T17:16:39;101107.41;;;23.70;100.00
60371;BME280;48550;40.588;49.684;2022-09-20T17:19:09;101101.59;;;23.71;100.00
60371;BME280;48550;40.588;49.684;2022-09-20T17:21:41;101097.13;;;23.75;100.00
60371;BME280;48550;40.588;49.684;2022-09-20T17:24:10;101098.75;;;23.76;100.00
60371;BME280;48550;40.588;49.684;2022-09-20T17:26:40;101099.38;;;23.73;100.00
60371;BME280;48550;40.588;49.684;2022-09-20T17:29:09;101103.22;;;23.72;100.00
60371;BME280;48550;40.588;49.684;2022-09-20T17:31:41;101099.38;;;23.73;100.00
60371;BME280;48550;40.588;49.684;2022-09-20T17:34:09;101098.63;;;23.59;100.00
60371;BME280;48550;40.588;49.684;2022-09-20T17:36:45;101107.03;;;23.49;100.00
60371;BME280;48550;40.588;49.684;2022-09-20T17:39:13;101106.72;;;23.28;100.00
60371;BME280;48550;40.588;49.684;2022-09-20T17:41:40;101094.56;;;23.21;100.00
60371;BME280;48550;40.588;49.684;2022-09-20T17:44:07;101100.38;;;23.05;100.00
60371;BME280;48550;40.588;49.684;2022-09-20T17:46:39;101095.69;;;22.92;100.00
60371;BME280;48550;40.588;49.684;2022-09-20T17:49:07;101099.66;;;22.86;100.00
60371;BME280;48550;40.588;49.684;2022-09-20T17:51:41;101100.28;;;22.83;100.00
60371;BME280;48550;40.588;49.684;2022-09-20T17:54:08;101092.06;;;22.83;100.00
60371;BME280;48550;40.588;49.684;2022-09-20T17:56:38;101098.66;;;22.82;100.00